Time;durP1;ratioP1;P1;durP2;ratioP2;P2;SDS_P1;SDS_P2;PMS_P1;PMS_P2;Temp;Humidity;BMP_temperature;BMP_pressure;BME280_temperature;BME280_humidity;BME280_pressure;Samples;Min_cycle;Max_cycle;Signal;HPM_P1;HPM_P2
2021/09/07 00:01:26;;;;;;;6.32;4.15;;;20.00;58.80;;;;;;5073462;28;20012;-76
2021/09/07 00:03:51;;;;;;;5.45;3.90;;;20.00;58.80;;;;;;5072560;28;20060;-77
2021/09/07 00:06:17;;;;;;;7.82;5.40;;;20.00;58.80;;;;;;5073871;28;20099;-77
2021/09/07 00:08:44;;;;;;;7.85;5.68;;;20.00;59.00;;;;;;5071898;28;20021;-78
2021/09/07 00:11:10;;;;;;;7.38;4.57;;;20.00;59.10;;;;;;5071925;28;20029;-76
2021/09/07 00:13:36;;;;;;;6.32;4.00;;;20.00;59.10;;;;;;5067658;28;20391;-76
2021/09/07 00:16:02;;;;;;;6.57;4.13;;;20.10;59.10;;;;;;5067811;28;20028;-76
2021/09/07 00:18:28;;;;;;;7.03;4.28;;;20.10;59.10;;;;;;5073576;28;20024;-77
2021/09/07 00:20:54;;;;;;;4.78;3.45;;;20.10;59.00;;;;;;5070635;28;20013;-76
2021/09/07 00:23:19;;;;;;;5.30;3.38;;;20.10;58.90;;;;;;5066914;28;20046;-76
2021/09/07 00:25:45;;;;;;;4.60;3.45;;;20.20;58.80;;;;;;5067904;28;20129;-76
2021/09/07 00:28:10;;;;;;;4.90;3.53;;;20.20;58.70;;;;;;5073948;28;20035;-77
2021/09/07 00:30:36;;;;;;;4.15;2.90;;;20.30;58.80;;;;;;5072090;28;20024;-76
2021/09/07 00:33:01;;;;;;;6.35;3.80;;;20.30;58.70;;;;;;5070806;28;20620;-75
2021/09/07 00:35:27;;;;;;;4.70;3.17;;;20.30;58.60;;;;;;5073453;28;20029;-77
2021/09/07 00:37:53;;;;;;;4.00;2.97;;;20.40;58.70;;;;;;5072236;28;20476;-77
2021/09/07 00:40:18;;;;;;;5.15;3.25;;;20.40;58.60;;;;;;5068883;28;20519;-76
2021/09/07 00:42:44;;;;;;;5.18;3.28;;;20.40;58.50;;;;;;5065476;28;20027;-76
2021/09/07 00:45:12;;;;;;;5.40;3.63;;;20.40;58.60;;;;;;5071947;28;20644;-76
2021/09/07 00:47:38;;;;;;;4.20;3.05;;;20.40;58.70;;;;;;5071189;28;20020;-76
2021/09/07 00:50:05;;;;;;;5.35;3.17;;;20.40;58.70;;;;;;5067741;28;20032;-76
2021/09/07 00:52:31;;;;;;;4.28;3.25;;;20.40;58.60;;;;;;5071330;28;20036;-75
2021/09/07 00:54:58;;;;;;;3.97;2.95;;;20.40;58.60;;;;;;5072284;28;20028;-75
2021/09/07 00:57:24;;;;;;;4.68;2.85;;;20.50;58.60;;;;;;5080537;28;20020;-76
2021/09/07 00:59:52;;;;;;;4.88;2.90;;;20.50;58.60;;;;;;5072935;28;20035;-76
2021/09/07 01:02:18;;;;;;;3.70;2.78;;;20.50;58.80;;;;;;5068670;28;20039;-77
2021/09/07 01:04:43;;;;;;;3.85;2.80;;;20.50;58.50;;;;;;5071181;28;20020;-78
2021/09/07 01:07:09;;;;;;;4.05;2.97;;;20.50;58.50;;;;;;5070985;28;20036;-76
2021/09/07 01:09:36;;;;;;;3.95;2.95;;;20.50;58.50;;;;;;5072567;28;20103;-76
2021/09/07 01:12:02;;;;;;;4.18;2.85;;;20.50;58.50;;;;;;5075904;28;20554;-79
2021/09/07 01:14:33;;;;;;;4.40;3.22;;;20.50;58.50;;;;;;5070869;28;20031;-77
2021/09/07 01:16:59;;;;;;;4.95;2.97;;;20.50;58.50;;;;;;5070362;28;20017;-77
2021/09/07 01:19:31;;;;;;;4.03;2.90;;;20.50;58.40;;;;;;5074805;28;20032;-76
2021/09/07 01:21:57;;;;;;;4.85;3.00;;;20.50;58.40;;;;;;5081764;28;20020;-76
2021/09/07 01:24:25;;;;;;;5.07;3.72;;;20.50;58.40;;;;;;5069648;28;20042;-77
2021/09/07 01:26:51;;;;;;;7.28;3.63;;;20.50;58.50;;;;;;5074336;28;20028;-77
2021/09/07 01:29:17;;;;;;;4.75;3.45;;;20.50;58.70;;;;;;5072813;28;20037;-77
2021/09/07 01:31:43;;;;;;;5.25;4.25;;;20.50;58.70;;;;;;5065954;28;20107;-77
2021/09/07 01:34:09;;;;;;;5.78;3.72;;;20.40;58.80;;;;;;5069592;28;20031;-77
2021/09/07 01:36:38;;;;;;;5.70;3.42;;;20.40;58.90;;;;;;5062986;28;20414;-76
2021/09/07 01:39:03;;;;;;;6.20;3.50;;;20.40;58.80;;;;;;5071854;28;20050;-77
2021/09/07 01:41:29;;;;;;;5.55;3.92;;;20.40;58.80;;;;;;5071592;28;20462;-77
2021/09/07 01:43:54;;;;;;;5.40;3.50;;;20.40;58.80;;;;;;5071640;28;20394;-78
2021/09/07 01:46:20;;;;;;;6.70;3.60;;;20.40;58.90;;;;;;5070239;28;20017;-76
2021/09/07 01:48:45;;;;;;;5.32;3.80;;;20.30;59.00;;;;;;5071822;28;20020;-77
2021/09/07 01:51:11;;;;;;;4.15;3.25;;;20.30;59.00;;;;;;5071532;28;20028;-76
2021/09/07 01:53:36;;;;;;;4.35;3.05;;;20.30;59.00;;;;;;5070000;28;20041;-78
2021/09/07 01:56:02;;;;;;;4.38;3.30;;;20.30;59.00;;;;;;5070511;28;20426;-77
2021/09/07 01:58:30;;;;;;;5.20;3.45;;;20.30;59.00;;;;;;5071483;28;20386;-76
2021/09/07 02:00:56;;;;;;;4.85;3.30;;;20.30;59.10;;;;;;5067624;28;20048;-77
2021/09/07 02:03:21;;;;;;;4.78;3.13;;;20.20;59.20;;;;;;5065657;28;20021;-77
2021/09/07 02:05:47;;;;;;;4.20;3.20;;;20.10;59.20;;;;;;5068021;28;20368;-78
2021/09/07 02:08:12;;;;;;;4.70;2.97;;;20.20;59.40;;;;;;5068644;28;20025;-77
2021/09/07 02:10:38;;;;;;;4.40;3.03;;;20.10;59.50;;;;;;5071373;28;20032;-77
2021/09/07 02:13:03;;;;;;;4.28;3.20;;;20.10;59.50;;;;;;5071213;28;20094;-77
2021/09/07 02:15:29;;;;;;;3.90;2.80;;;20.10;59.60;;;;;;5068598;28;20016;-79
2021/09/07 02:17:55;;;;;;;5.97;3.00;;;20.10;59.70;;;;;;5079940;28;20297;-77
2021/09/07 02:20:21;;;;;;;5.53;3.50;;;20.10;59.80;;;;;;5071769;28;20017;-77
2021/09/07 02:22:46;;;;;;;5.00;3.22;;;20.10;59.80;;;;;;5071063;28;20043;-78
2021/09/07 02:25:13;;;;;;;4.57;3.42;;;20.00;59.90;;;;;;5065467;28;20020;-77
2021/09/07 02:27:38;;;;;;;4.97;3.38;;;20.00;60.10;;;;;;5074122;28;20104;-77
2021/09/07 02:30:06;;;;;;;4.07;3.03;;;20.00;60.30;;;;;;5063625;28;20123;-77
2021/09/07 02:32:31;;;;;;;4.13;2.90;;;20.00;60.50;;;;;;5069306;28;20083;-77
2021/09/07 02:34:57;;;;;;;4.50;2.97;;;20.00;60.50;;;;;;5070689;28;20070;-79
2021/09/07 02:37:23;;;;;;;5.90;3.60;;;19.90;60.50;;;;;;5059841;28;20048;-77
2021/09/07 02:39:48;;;;;;;5.00;3.45;;;20.00;60.50;;;;;;5070558;28;20029;-77
2021/09/07 02:42:14;;;;;;;5.28;3.58;;;20.00;60.40;;;;;;5070235;28;20364;-78
2021/09/07 02:44:39;;;;;;;4.47;2.97;;;20.00;60.40;;;;;;5070583;28;20443;-77
2021/09/07 02:47:05;;;;;;;5.85;3.70;;;20.00;60.40;;;;;;5070229;28;20024;-77
2021/09/07 02:49:30;;;;;;;5.00;3.67;;;20.00;60.40;;;;;;5069787;28;20031;-77
2021/09/07 02:51:56;;;;;;;5.20;3.42;;;20.00;60.40;;;;;;5069398;28;20032;-77
2021/09/07 02:54:21;;;;;;;5.57;3.58;;;20.00;60.50;;;;;;5070553;28;20020;-78
2021/09/07 02:56:47;;;;;;;4.63;3.63;;;20.00;60.80;;;;;;5073560;28;20028;-77
2021/09/07 02:59:13;;;;;;;5.35;3.58;;;19.90;61.00;;;;;;5077388;28;20580;-76
2021/09/07 03:01:38;;;;;;;4.80;3.50;;;20.00;61.00;;;;;;5077695;28;20077;-77
2021/09/07 03:04:04;;;;;;;5.38;3.80;;;19.90;60.90;;;;;;5077558;28;20025;-78
2021/09/07 03:06:29;;;;;;;5.28;3.72;;;20.00;60.90;;;;;;5075250;28;20529;-78
2021/09/07 03:08:55;;;;;;;5.07;3.83;;;20.00;61.00;;;;;;5077346;28;20025;-76
2021/09/07 03:11:20;;;;;;;5.00;3.50;;;19.90;60.80;;;;;;5077792;28;20071;-78
2021/09/07 03:13:46;;;;;;;5.18;3.65;;;20.00;60.80;;;;;;5075128;28;20037;-77
2021/09/07 03:16:15;;;;;;;5.57;3.60;;;19.90;60.80;;;;;;5074734;28;20048;-77
2021/09/07 03:18:40;;;;;;;4.93;3.50;;;19.90;60.90;;;;;;5076615;28;20059;-77
2021/09/07 03:21:06;;;;;;;5.20;3.58;;;19.90;61.10;;;;;;5077387;28;20377;-78
2021/09/07 03:23:31;;;;;;;5.75;3.60;;;19.90;61.30;;;;;;5077342;28;20024;-79
2021/09/07 03:25:57;;;;;;;5.40;3.83;;;19.90;61.50;;;;;;5074858;28;20021;-78
2021/09/07 03:28:22;;;;;;;4.50;3.20;;;19.80;61.70;;;;;;5078234;28;20024;-77
2021/09/07 03:30:48;;;;;;;5.13;3.30;;;19.80;61.80;;;;;;5086435;28;20097;-77
2021/09/07 03:33:14;;;;;;;4.57;3.40;;;19.80;61.80;;;;;;5076384;28;20044;-76
2021/09/07 03:35:39;;;;;;;6.03;3.92;;;19.80;61.70;;;;;;5084371;28;20036;-76
2021/09/07 03:38:05;;;;;;;5.00;3.65;;;19.80;61.80;;;;;;5076822;28;20033;-78
2021/09/07 03:40:30;;;;;;;5.22;3.70;;;19.70;61.90;;;;;;5067303;28;20339;-77
2021/09/07 03:42:56;;;;;;;6.15;3.90;;;19.70;61.90;;;;;;5079959;28;20032;-78
2021/09/07 03:45:21;;;;;;;4.85;3.63;;;19.70;62.00;;;;;;5082327;28;20031;-79
2021/09/07 03:47:47;;;;;;;5.28;3.42;;;19.70;62.30;;;;;;5082020;28;20035;-77
2021/09/07 03:50:15;;;;;;;5.22;3.90;;;19.60;62.40;;;;;;5080020;28;20021;-77
2021/09/07 03:52:41;;;;;;;6.55;3.67;;;19.60;62.40;;;;;;5076839;28;20056;-77
2021/09/07 03:55:07;;;;;;;5.28;3.88;;;19.60;62.50;;;;;;5076337;28;20407;-77
2021/09/07 03:57:33;;;;;;;6.43;4.20;;;19.60;62.60;;;;;;5075648;28;20036;-78
2021/09/07 03:59:58;;;;;;;5.07;3.90;;;19.50;62.70;;;;;;5076522;28;20029;-79
2021/09/07 04:02:24;;;;;;;6.10;4.28;;;19.60;62.80;;;;;;5077436;28;20388;-76
2021/09/07 04:04:51;;;;;;;7.13;4.32;;;19.50;62.70;;;;;;5076394;28;20546;-76
2021/09/07 04:07:16;;;;;;;5.97;3.85;;;19.50;62.80;;;;;;5074511;28;20032;-77
2021/09/07 04:09:42;;;;;;;5.03;3.80;;;19.40;62.90;;;;;;5073133;28;20414;-77
2021/09/07 04:12:07;;;;;;;6.60;3.78;;;19.40;62.90;;;;;;5072820;28;20463;-75
2021/09/07 04:14:33;;;;;;;8.13;4.00;;;19.40;62.90;;;;;;5073585;28;20028;-77
2021/09/07 04:16:59;;;;;;;5.70;3.90;;;19.30;63.10;;;;;;5061914;28;20075;-76
2021/09/07 04:19:24;;;;;;;5.60;3.88;;;19.20;63.10;;;;;;5073297;28;20036;-76
2021/09/07 04:21:50;;;;;;;6.32;4.70;;;19.20;63.40;;;;;;5072042;28;20123;-78
2021/09/07 04:24:15;;;;;;;6.05;4.20;;;19.10;63.50;;;;;;5073618;28;20056;-77
2021/09/07 04:26:41;;;;;;;5.85;3.75;;;19.10;63.70;;;;;;5071457;28;20024;-78
2021/09/07 04:29:07;;;;;;;5.22;3.83;;;19.00;63.90;;;;;;5072971;28;20041;-76
2021/09/07 04:31:32;;;;;;;5.35;3.85;;;19.00;64.20;;;;;;5073508;28;20021;-77
2021/09/07 04:33:58;;;;;;;5.60;3.95;;;18.90;64.30;;;;;;5073189;28;20501;-77
2021/09/07 04:36:23;;;;;;;6.10;4.28;;;18.90;64.50;;;;;;5063567;28;20036;-77
2021/09/07 04:38:49;;;;;;;5.22;3.72;;;18.90;64.50;;;;;;5072618;28;20432;-79
2021/09/07 04:41:14;;;;;;;6.13;4.22;;;18.80;64.60;;;;;;5072913;28;20027;-77
2021/09/07 04:43:40;;;;;;;6.47;4.55;;;18.80;64.70;;;;;;5072495;28;20035;-76
2021/09/07 04:46:05;;;;;;;7.45;4.60;;;18.80;64.60;;;;;;5069816;28;20119;-76
2021/09/07 04:48:31;;;;;;;5.22;3.95;;;18.80;64.70;;;;;;5066631;28;20079;-76
2021/09/07 04:50:56;;;;;;;5.72;3.80;;;18.70;64.80;;;;;;5066163;28;20032;-77
2021/09/07 04:53:22;;;;;;;5.43;4.10;;;18.60;65.20;;;;;;5073304;28;20086;-78
2021/09/07 04:55:48;;;;;;;6.13;4.15;;;18.60;65.40;;;;;;5064371;28;20735;-78
2021/09/07 04:58:14;;;;;;;6.03;3.75;;;18.60;65.60;;;;;;5072166;28;20020;-78
2021/09/07 05:00:39;;;;;;;5.70;4.38;;;18.50;65.60;;;;;;5072983;28;20012;-78
2021/09/07 05:03:05;;;;;;;5.25;3.97;;;18.50;65.80;;;;;;5071474;28;20027;-79
2021/09/07 05:05:30;;;;;;;6.47;4.22;;;18.40;65.80;;;;;;5062883;28;20036;-80
2021/09/07 05:07:58;;;;;;;6.13;4.45;;;18.50;65.80;;;;;;5069697;28;20037;-77
2021/09/07 05:10:24;;;;;;;7.43;4.40;;;18.50;65.70;;;;;;5071247;28;20025;-77
2021/09/07 05:12:50;;;;;;;6.18;4.50;;;18.50;65.70;;;;;;5072439;28;20253;-82
2021/09/07 05:15:15;;;;;;;5.53;4.13;;;18.50;65.90;;;;;;5063133;28;20016;-77
2021/09/07 05:17:41;;;;;;;6.22;4.20;;;18.40;65.90;;;;;;5061129;28;20475;-77
2021/09/07 05:20:08;;;;;;;6.28;4.20;;;18.50;65.90;;;;;;5070839;28;20025;-77
2021/09/07 05:22:33;;;;;;;6.95;4.63;;;18.40;65.90;;;;;;5068088;28;20146;-76
2021/09/07 05:25:01;;;;;;;6.70;4.25;;;18.50;65.80;;;;;;5072773;28;20115;-76
2021/09/07 05:27:26;;;;;;;6.65;4.68;;;18.50;66.00;;;;;;5072041;28;20434;-76
2021/09/07 05:29:52;;;;;;;7.15;4.68;;;18.50;65.90;;;;;;5066205;28;20036;-77
2021/09/07 05:32:17;;;;;;;5.95;4.43;;;18.50;65.80;;;;;;5070159;28;20029;-76
2021/09/07 05:34:43;;;;;;;6.78;4.68;;;18.50;65.70;;;;;;5069399;28;20033;-77
2021/09/07 05:37:08;;;;;;;6.22;4.90;;;18.60;65.70;;;;;;5071708;28;20035;-78
2021/09/07 05:39:34;;;;;;;7.30;4.35;;;18.50;65.70;;;;;;5072377;28;20020;-79
2021/09/07 05:42:00;;;;;;;5.85;4.20;;;18.50;66.00;;;;;;5058511;28;20512;-76
2021/09/07 05:44:25;;;;;;;7.10;4.57;;;18.50;66.20;;;;;;5052551;28;20021;-77
2021/09/07 05:46:51;;;;;;;7.35;4.72;;;18.40;66.40;;;;;;5055404;28;20474;-77
2021/09/07 05:49:16;;;;;;;7.38;5.00;;;18.40;66.50;;;;;;5070485;28;20086;-83
2021/09/07 05:51:44;;;;;;;9.18;5.10;;;18.50;66.60;;;;;;5072748;28;20371;-81
2021/09/07 05:54:09;;;;;;;6.75;4.90;;;18.60;66.30;;;;;;5072077;28;20027;-80
2021/09/07 05:56:35;;;;;;;7.75;5.28;;;18.90;65.80;;;;;;5057271;28;20020;-80
2021/09/07 05:59:00;;;;;;;7.05;5.00;;;19.20;65.20;;;;;;5064209;28;20579;-77
2021/09/07 06:01:26;;;;;;;5.95;4.45;;;19.20;65.10;;;;;;5076219;28;20370;-77
2021/09/07 06:03:52;;;;;;;7.72;4.43;;;19.20;65.20;;;;;;5080169;28;20498;-78
2021/09/07 06:06:17;;;;;;;6.68;4.50;;;19.20;65.20;;;;;;5073746;28;20024;-77
2021/09/07 06:08:43;;;;;;;6.40;4.57;;;19.20;65.20;;;;;;5069389;28;20633;-78
2021/09/07 06:11:09;;;;;;;8.27;5.45;;;19.30;65.30;;;;;;5076439;28;20031;-77
2021/09/07 06:13:35;;;;;;;8.02;5.10;;;19.30;65.10;;;;;;5072763;28;20107;-77
2021/09/07 06:16:01;;;;;;;7.28;4.90;;;19.50;65.00;;;;;;5090176;28;20470;-77
2021/09/07 06:18:27;;;;;;;7.53;4.93;;;19.90;64.50;;;;;;5080579;28;20024;-78
2021/09/07 06:20:52;;;;;;;7.47;5.32;;;20.40;63.30;;;;;;5070749;28;20056;-77
2021/09/07 06:23:18;;;;;;;8.32;5.43;;;21.10;62.10;;;;;;5071918;28;20062;-82
2021/09/07 06:25:44;;;;;;;8.60;5.70;;;21.90;60.50;;;;;;5095347;28;20584;-77
2021/09/07 06:28:10;;;;;;;6.50;5.38;;;23.00;58.70;;;;;;5066021;28;20025;-77
2021/09/07 06:30:36;;;;;;;7.15;5.70;;;24.10;56.80;;;;;;5066642;28;20451;-77
2021/09/07 06:33:05;;;;;;;8.73;5.97;;;25.00;55.10;;;;;;5069843;28;20079;-77
2021/09/07 06:35:30;;;;;;;7.75;5.82;;;25.40;54.20;;;;;;5070183;28;20036;-77
2021/09/07 06:37:56;;;;;;;7.63;5.72;;;25.60;53.60;;;;;;5065314;28;20020;-77
2021/09/07 06:40:22;;;;;;;7.57;5.50;;;25.40;53.50;;;;;;5065239;28;20035;-78
2021/09/07 06:42:49;;;;;;;8.20;5.20;;;25.00;54.10;;;;;;5071516;28;20553;-78
2021/09/07 06:45:15;;;;;;;10.90;6.32;;;24.90;54.80;;;;;;5069962;28;20021;-78
2021/09/07 06:47:41;;;;;;;7.22;5.18;;;24.60;55.20;;;;;;5065130;28;20483;-77
2021/09/07 06:50:07;;;;;;;6.30;4.32;;;24.60;55.30;;;;;;5070987;28;20073;-77
2021/09/07 06:52:32;;;;;;;7.97;5.80;;;24.50;56.00;;;;;;5068077;28;20090;-77
2021/09/07 06:54:59;;;;;;;8.15;5.43;;;24.10;55.80;;;;;;5069518;28;20081;-77
2021/09/07 06:57:27;;;;;;;8.45;5.85;;;23.70;56.40;;;;;;5068423;28;20033;-77
2021/09/07 06:59:54;;;;;;;8.90;6.88;;;23.20;57.00;;;;;;5064880;28;20016;-78
2021/09/07 07:02:21;;;;;;;10.80;7.90;;;22.90;57.50;;;;;;5070083;28;20017;-77
2021/09/07 07:04:46;;;;;;;8.43;6.20;;;22.60;58.00;;;;;;5068824;28;20067;-77
2021/09/07 07:07:12;;;;;;;8.70;6.00;;;22.40;58.50;;;;;;5062910;28;20051;-77
2021/09/07 07:09:38;;;;;;;7.65;5.50;;;22.40;58.70;;;;;;5066491;28;20453;-78
2021/09/07 07:12:04;;;;;;;6.18;4.57;;;22.40;58.70;;;;;;5075304;28;20036;-77
2021/09/07 07:14:30;;;;;;;8.02;5.50;;;22.30;58.70;;;;;;5076120;28;20040;-78
2021/09/07 07:16:56;;;;;;;6.70;4.90;;;22.30;58.60;;;;;;5070526;28;20021;-77
2021/09/07 07:19:22;;;;;;;8.98;6.22;;;22.30;58.70;;;;;;5069685;28;20043;-78
2021/09/07 07:21:48;;;;;;;7.72;5.43;;;22.20;58.80;;;;;;5070604;28;20062;-79
2021/09/07 07:24:17;;;;;;;9.20;6.88;;;22.30;58.80;;;;;;5074915;28;20112;-75
2021/09/07 07:26:44;;;;;;;7.03;4.97;;;22.20;58.60;;;;;;5076309;28;20039;-77
2021/09/07 07:29:11;;;;;;;9.05;7.05;;;22.20;58.80;;;;;;5073726;28;20103;-77
2021/09/07 07:31:37;;;;;;;8.13;5.97;;;22.20;58.80;;;;;;5074261;28;20779;-76
2021/09/07 07:34:03;;;;;;;9.40;6.72;;;22.30;58.70;;;;;;5076811;28;20047;-77
2021/09/07 07:36:28;;;;;;;9.40;5.95;;;22.30;58.70;;;;;;5079194;28;20024;-76
2021/09/07 07:38:53;;;;;;;9.60;6.70;;;22.60;58.50;;;;;;5071268;28;20506;-77
2021/09/07 07:41:19;;;;;;;8.35;5.90;;;22.80;58.00;;;;;;5066662;28;20946;-76
2021/09/07 07:43:46;;;;;;;15.52;10.50;;;23.00;57.60;;;;;;5077079;28;20035;-76
2021/09/07 07:46:12;;;;;;;9.77;6.60;;;23.10;56.90;;;;;;5071488;28;20450;-78
2021/09/07 07:48:41;;;;;;;10.65;7.20;;;23.40;56.80;;;;;;5084291;28;20024;-78
2021/09/07 07:51:11;;;;;;;8.30;6.10;;;23.60;56.10;;;;;;5074218;28;20028;-78
2021/09/07 07:53:38;;;;;;;10.50;7.35;;;23.90;55.60;;;;;;5079491;28;20479;-80
2021/09/07 07:56:04;;;;;;;8.23;6.20;;;24.10;55.00;;;;;;5050718;28;20494;-77
2021/09/07 07:58:29;;;;;;;7.82;6.15;;;24.30;54.90;;;;;;5073058;28;20035;-77
2021/09/07 08:00:55;;;;;;;8.88;6.03;;;24.50;54.50;;;;;;5077133;28;20471;-77
2021/09/07 08:03:21;;;;;;;8.73;6.20;;;24.60;54.00;;;;;;5070475;28;20509;-77
2021/09/07 08:05:47;;;;;;;10.18;6.68;;;24.60;53.90;;;;;;5066340;28;20025;-77
2021/09/07 08:08:13;;;;;;;7.22;5.93;;;24.60;54.10;;;;;;5070114;28;20039;-78
2021/09/07 08:10:39;;;;;;;8.20;5.65;;;24.60;54.10;;;;;;5066017;28;20035;-77
2021/09/07 08:13:05;;;;;;;7.63;5.82;;;24.60;54.20;;;;;;5069629;28;20045;-77
2021/09/07 08:15:31;;;;;;;8.65;6.30;;;24.70;54.20;;;;;;5075332;28;20020;-77
2021/09/07 08:17:57;;;;;;;9.40;6.00;;;24.80;53.90;;;;;;5072020;28;20074;-77
2021/09/07 08:20:23;;;;;;;7.13;5.25;;;24.80;53.70;;;;;;5072802;28;20104;-76
2021/09/07 08:22:49;;;;;;;9.32;6.35;;;24.80;53.70;;;;;;5076077;28;20116;-77
2021/09/07 08:25:15;;;;;;;10.30;7.13;;;24.70;53.70;;;;;;5073939;28;20077;-76
2021/09/07 08:27:41;;;;;;;7.25;4.90;;;24.60;53.50;;;;;;5075015;28;20059;-77
2021/09/07 08:30:08;;;;;;;8.43;6.38;;;24.60;53.80;;;;;;5066809;28;20098;-76
2021/09/07 08:32:37;;;;;;;10.15;7.18;;;24.60;53.70;;;;;;5067257;28;20041;-76
2021/09/07 08:35:03;;;;;;;9.00;6.78;;;24.60;53.60;;;;;;5085725;28;20351;-74
2021/09/07 08:37:30;;;;;;;10.70;7.35;;;24.50;53.60;;;;;;5070449;28;21713;-76
2021/09/07 08:39:56;;;;;;;10.05;7.75;;;24.50;53.30;;;;;;5073878;28;20031;-76
2021/09/07 08:42:22;;;;;;;12.40;9.27;;;24.40;53.50;;;;;;5074614;28;20020;-76
2021/09/07 08:44:50;;;;;;;8.50;6.07;;;24.30;53.20;;;;;;5068646;28;20047;-76
2021/09/07 08:47:17;;;;;;;7.03;5.10;;;24.30;53.30;;;;;;5069211;28;20025;-77
2021/09/07 08:49:44;;;;;;;8.93;6.75;;;24.30;52.90;;;;;;5075026;28;20029;-75
2021/09/07 08:52:13;;;;;;;8.30;5.50;;;24.20;52.60;;;;;;5074441;28;20146;-75
2021/09/07 08:54:39;;;;;;;7.90;6.07;;;24.20;52.30;;;;;;5069699;28;20040;-77
2021/09/07 08:57:05;;;;;;;9.55;6.70;;;24.20;52.70;;;;;;5066962;28;20062;-76
2021/09/07 08:59:32;;;;;;;10.70;7.43;;;24.20;52.60;;;;;;5069233;28;20032;-77
2021/09/07 09:02:12;;;;;;;10.77;7.63;;;24.20;53.30;;;;;;5068089;28;20789;-78
2021/09/07 09:04:37;;;;;;;11.27;8.32;;;24.20;52.90;;;;;;5071363;28;20056;-77
2021/09/07 09:07:03;;;;;;;10.52;7.50;;;24.20;52.90;;;;;;5070359;28;20062;-78
2021/09/07 09:09:38;;;;;;;10.32;7.28;;;24.10;53.10;;;;;;5067624;28;20054;-77
2021/09/07 09:12:05;;;;;;;10.98;8.40;;;24.10;53.00;;;;;;5077427;28;20029;-78
2021/09/07 09:14:36;;;;;;;11.45;8.02;;;24.10;52.90;;;;;;5070149;28;20049;-78
2021/09/07 09:17:17;;;;;;;9.00;6.97;;;24.00;52.60;;;;;;5062468;28;20115;-78
2021/09/07 09:20:07;;;;;;;11.23;8.60;;;24.00;52.80;;;;;;5071151;28;20043;-78
2021/09/07 09:23:03;;;;;;;8.77;6.47;;;24.00;52.90;;;;;;5066460;28;20021;-76
2021/09/07 09:25:36;;;;;;;10.45;7.47;;;24.10;53.00;;;;;;5058585;28;20040;-76
2021/09/07 09:28:01;;;;;;;8.88;6.63;;;24.20;52.60;;;;;;5076369;28;20036;-75
2021/09/07 09:30:30;;;;;;;10.45;7.80;;;24.30;52.60;;;;;;5071250;28;20024;-77
2021/09/07 09:32:58;;;;;;;6.55;5.07;;;24.30;52.60;;;;;;5067727;28;20040;-78
2021/09/07 09:35:27;;;;;;;12.40;8.23;;;24.40;52.70;;;;;;5068574;28;20039;-77
2021/09/07 09:37:54;;;;;;;8.73;6.03;;;24.40;52.30;;;;;;5067752;28;20027;-78
2021/09/07 09:40:20;;;;;;;10.80;7.57;;;24.50;52.20;;;;;;5067510;28;20047;-77
2021/09/07 09:42:48;;;;;;;11.80;8.85;;;24.50;51.90;;;;;;5068593;28;20063;-76
2021/09/07 09:45:13;;;;;;;10.30;7.50;;;24.30;50.40;;;;;;5070302;28;20013;-77
2021/09/07 09:47:43;;;;;;;10.38;7.85;;;24.30;50.90;;;;;;5085870;28;20054;-77
2021/09/07 09:50:10;;;;;;;11.85;8.02;;;24.30;50.90;;;;;;5070557;28;20025;-77
2021/09/07 09:52:38;;;;;;;11.05;8.57;;;24.30;51.30;;;;;;5068690;28;20040;-77
2021/09/07 09:55:06;;;;;;;9.02;6.60;;;24.30;51.50;;;;;;5069361;28;20361;-77
2021/09/07 09:57:34;;;;;;;10.75;7.28;;;24.40;51.40;;;;;;5070162;28;20025;-77
2021/09/07 10:00:02;;;;;;;9.07;7.28;;;24.50;50.30;;;;;;5070544;28;20417;-76
2021/09/07 10:02:29;;;;;;;9.68;7.82;;;24.60;49.90;;;;;;5071309;28;20129;-76
2021/09/07 10:04:55;;;;;;;12.93;8.15;;;24.70;50.10;;;;;;5066769;28;20475;-76
2021/09/07 10:07:20;;;;;;;10.07;7.72;;;24.70;50.10;;;;;;5068578;28;20034;-76
2021/09/07 10:09:48;;;;;;;11.57;8.02;;;24.80;50.20;;;;;;5072830;28;20626;-77
2021/09/07 10:12:18;;;;;;;12.75;9.00;;;24.90;50.40;;;;;;5067116;28;20024;-78
2021/09/07 10:15:38;;;;;;;9.85;6.90;;;24.90;50.60;;;;;;5074673;28;20077;-78
2021/09/07 10:17:48;;;;;;;8.50;7.30;;;25.00;50.80;;;;;;5072660;28;20037;-77
2021/09/07 10:20:34;;;;;;;11.65;9.02;;;25.20;50.80;;;;;;5071651;28;20119;-76
2021/09/07 10:25:55;;;;;;;10.18;7.85;;;25.20;50.50;;;;;;5072951;28;20025;-78
2021/09/07 10:28:43;;;;;;;12.85;9.20;;;25.20;50.70;;;;;;5067546;28;20070;-80
2021/09/07 10:31:58;;;;;;;8.35;6.10;;;25.10;50.60;;;;;;5069032;28;20534;-77
2021/09/07 10:34:28;;;;;;;10.65;7.20;;;25.30;51.00;;;;;;5042627;28;20056;-77
2021/09/07 10:37:01;;;;;;;12.48;8.77;;;25.50;51.00;;;;;;5069046;28;20032;-77
2021/09/07 10:39:40;;;;;;;11.48;8.88;;;25.40;50.80;;;;;;5065235;28;20055;-75
2021/09/07 10:42:12;;;;;;;8.27;6.30;;;25.40;50.40;;;;;;5066047;28;20020;-77
2021/09/07 10:44:39;;;;;;;8.23;5.97;;;25.50;50.70;;;;;;5068786;28;20074;-78
2021/09/07 10:47:16;;;;;;;10.18;7.68;;;25.50;50.60;;;;;;5072619;28;20032;-76
2021/09/07 10:49:47;;;;;;;13.60;8.93;;;25.50;50.30;;;;;;5066266;28;20044;-77
2021/09/07 10:52:25;;;;;;;13.30;10.07;;;25.50;50.10;;;;;;5066681;28;20070;-78
2021/09/07 10:55:07;;;;;;;9.07;6.25;;;25.50;50.00;;;;;;5063711;28;20035;-78
2021/09/07 10:57:35;;;;;;;11.25;8.13;;;25.60;50.30;;;;;;5063912;28;20723;-77
2021/09/07 11:00:16;;;;;;;9.52;7.35;;;25.60;50.20;;;;;;5069213;28;20039;-77
2021/09/07 11:02:52;;;;;;;12.18;8.25;;;25.60;50.50;;;;;;5067960;28;20391;-78
2021/09/07 11:05:24;;;;;;;13.18;9.07;;;25.70;50.30;;;;;;5074924;28;20021;-79
2021/09/07 11:08:10;;;;;;;10.45;7.35;;;25.70;50.10;;;;;;5062433;28;20380;-77
2021/09/07 11:10:54;;;;;;;8.18;6.30;;;25.90;50.30;;;;;;5065157;28;20033;-79
2021/09/07 11:13:26;;;;;;;9.98;7.07;;;26.00;50.20;;;;;;5069830;28;20072;-78
2021/09/07 11:15:54;;;;;;;11.68;7.95;;;26.10;50.10;;;;;;5068003;28;20497;-77
2021/09/07 11:18:24;;;;;;;9.77;7.30;;;26.20;49.60;;;;;;5063521;28;20033;-78
2021/09/07 11:20:51;;;;;;;10.10;7.15;;;26.30;49.20;;;;;;5070795;28;20077;-78
2021/09/07 11:23:19;;;;;;;9.05;6.53;;;26.40;49.10;;;;;;5074268;28;20080;-79
2021/09/07 11:25:57;;;;;;;7.32;5.22;;;26.40;49.10;;;;;;5072389;28;20121;-78
2021/09/07 11:28:23;;;;;;;10.45;7.25;;;26.50;49.20;;;;;;5068953;28;20505;-77
2021/09/07 11:30:53;;;;;;;9.73;8.02;;;26.50;49.30;;;;;;5073057;28;20037;-78
2021/09/07 11:33:25;;;;;;;7.97;6.07;;;26.60;48.90;;;;;;5074604;28;20431;-81
2021/09/07 11:35:53;;;;;;;7.70;5.53;;;26.50;49.10;;;;;;5071081;28;20448;-78
2021/09/07 11:38:24;;;;;;;9.68;7.55;;;26.60;49.20;;;;;;5072768;28;20387;-78
2021/09/07 11:41:01;;;;;;;10.57;8.38;;;26.50;48.90;;;;;;5076765;28;20027;-78
2021/09/07 11:43:34;;;;;;;7.97;5.70;;;26.40;48.60;;;;;;5076434;28;20052;-77
2021/09/07 11:46:13;;;;;;;10.27;7.75;;;26.60;48.90;;;;;;5064642;28;20310;-77
2021/09/07 11:48:50;;;;;;;8.82;6.30;;;26.60;48.40;;;;;;5079051;28;20107;-78
2021/09/07 11:51:31;;;;;;;5.95;4.80;;;26.70;48.50;;;;;;5075141;28;20466;-79
2021/09/07 11:54:01;;;;;;;8.98;6.75;;;26.80;48.40;;;;;;5072806;28;20036;-78
2021/09/07 11:56:31;;;;;;;6.90;5.22;;;26.90;48.00;;;;;;5074243;28;20722;-77
2021/09/07 11:59:19;;;;;;;6.53;4.68;;;27.00;48.10;;;;;;5071203;28;20032;-78
2021/09/07 12:01:48;;;;;;;8.40;6.40;;;27.00;47.90;;;;;;5074410;28;20043;-79
2021/09/07 12:04:17;;;;;;;10.30;7.30;;;27.00;47.40;;;;;;5077153;28;20036;-78
2021/09/07 12:06:45;;;;;;;8.88;6.88;;;26.80;47.60;;;;;;5070481;28;20040;-80
2021/09/07 12:09:28;;;;;;;9.05;6.97;;;26.70;47.60;;;;;;5076782;28;20024;-78
2021/09/07 12:12:02;;;;;;;10.65;6.55;;;26.70;47.60;;;;;;5092311;28;20026;-78
2021/09/07 12:14:35;;;;;;;8.90;5.95;;;26.80;47.70;;;;;;5069626;28;20119;-78
2021/09/07 12:17:07;;;;;;;5.72;4.22;;;26.80;47.60;;;;;;5077841;28;20379;-77
2021/09/07 12:19:35;;;;;;;10.13;7.40;;;27.00;47.80;;;;;;5075070;28;20103;-78
2021/09/07 12:22:20;;;;;;;9.73;7.72;;;27.00;47.10;;;;;;5073852;28;20181;-80
2021/09/07 12:25:12;;;;;;;7.20;5.60;;;26.90;46.70;;;;;;5077250;28;20169;-79
2021/09/07 12:27:50;;;;;;;6.50;5.60;;;27.00;47.30;;;;;;5069015;28;20104;-79
2021/09/07 12:30:28;;;;;;;8.73;6.10;;;27.20;47.30;;;;;;5063971;28;20021;-79
2021/09/07 12:33:08;;;;;;;7.28;4.72;;;27.20;46.90;;;;;;5068629;28;20033;-78
2021/09/07 12:35:43;;;;;;;9.23;6.88;;;27.30;47.00;;;;;;5085628;28;20470;-77
2021/09/07 12:38:25;;;;;;;7.43;5.90;;;27.30;46.50;;;;;;5079817;28;20020;-79
2021/09/07 12:41:03;;;;;;;5.83;4.63;;;27.30;46.60;;;;;;5074633;28;20017;-78
2021/09/07 12:43:31;;;;;;;10.02;7.78;;;27.50;46.30;;;;;;5095871;28;20473;-81
2021/09/07 12:46:03;;;;;;;9.63;7.07;;;27.30;45.80;;;;;;5073110;28;20474;-79
2021/09/07 12:48:29;;;;;;;;;;;27.20;46.30;;;;;;5090771;28;20062;-77
2021/09/07 12:50:56;;;;;;;7.88;6.03;;;27.50;46.50;;;;;;5070161;28;19934;-79
2021/09/07 12:53:24;;;;;;;5.55;4.15;;;27.60;46.30;;;;;;5079765;28;20074;-79